Time;durP1;ratioP1;P1;durP2;ratioP2;P2;SDS_P1;SDS_P2;PMS_P1;PMS_P2;Temp;Humidity;BMP_temperature;BMP_pressure;BME280_temperature;BME280_humidity;BME280_pressure;Samples;Min_cycle;Max_cycle;Signal;HPM_P1;HPM_P2
2023/06/02 00:02:59;;;;;;;5.18;4.70;;;;;;;17.45;51.57;100267.59;10348306;28;20045;-65
2023/06/02 00:08:02;;;;;;;4.68;4.28;;;;;;;17.38;51.74;100272.78;10339130;28;20262;-65
2023/06/02 00:13:06;;;;;;;5.27;4.53;;;;;;;17.35;51.84;100288.44;10344793;28;20064;-65
2023/06/02 00:18:08;;;;;;;4.82;4.30;;;;;;;17.36;51.62;100285.59;10327924;28;20053;-64
2023/06/02 00:23:10;;;;;;;5.35;4.85;;;;;;;17.26;51.74;100269.63;10345110;28;20466;-65
2023/06/02 00:28:11;;;;;;;4.82;4.40;;;;;;;17.20;52.06;100267.56;10329745;28;20045;-65
2023/06/02 00:33:13;;;;;;;4.88;4.47;;;;;;;17.13;52.23;100280.03;10334862;28;20506;-64
2023/06/02 00:38:15;;;;;;;4.78;4.20;;;;;;;17.05;52.42;100280.00;10322084;28;20053;-66
2023/06/02 00:43:17;;;;;;;5.20;4.70;;;;;;;17.04;52.49;100283.69;10349040;28;20045;-66
2023/06/02 00:48:18;;;;;;;5.07;4.18;;;;;;;17.00;52.49;100274.28;10345614;28;20048;-67
2023/06/02 00:53:20;;;;;;;5.00;4.50;;;;;;;16.91;52.87;100271.56;10350235;28;20147;-66
2023/06/02 00:58:23;;;;;;;4.82;4.22;;;;;;;16.88;53.02;100274.56;10328988;28;20056;-66
2023/06/02 01:03:26;;;;;;;4.85;4.35;;;;;;;16.74;53.71;100280.56;10318134;28;20506;-66
2023/06/02 01:08:30;;;;;;;5.47;4.97;;;;;;;16.75;53.29;100287.59;10333323;28;20053;-66
2023/06/02 01:13:32;;;;;;;5.80;4.35;;;;;;;16.55;53.84;100282.50;10329800;28;20056;-65
2023/06/02 01:18:36;;;;;;;5.40;4.40;;;;;;;16.49;53.57;100277.78;10346104;28;20051;-63
2023/06/02 01:23:49;;;;;;;5.35;4.85;;;;;;;16.53;54.12;100289.88;10317487;28;21171;-64
2023/06/02 01:28:50;;;;;;;5.07;4.43;;;;;;;16.53;53.83;100273.75;10316702;28;20060;-65
2023/06/02 01:34:16;;;;;;;4.45;4.05;;;;;;;16.36;53.92;100263.94;10314928;28;20052;-65
2023/06/02 01:39:19;;;;;;;5.30;4.80;;;;;;;16.40;54.27;100278.75;10340771;28;20049;-65
2023/06/02 01:44:22;;;;;;;4.80;4.40;;;;;;;16.43;53.91;100273.03;10334370;28;20692;-65
2023/06/02 01:49:24;;;;;;;4.97;4.55;;;;;;;16.43;53.59;100289.16;10344733;28;20168;-67
2023/06/02 01:54:26;;;;;;;5.13;4.72;;;;;;;16.30;54.26;100289.59;10322552;28;20049;-66
2023/06/02 01:59:27;;;;;;;4.85;4.35;;;;;;;16.24;53.81;100285.72;10327619;28;20053;-65
2023/06/02 02:04:29;;;;;;;4.63;4.13;;;;;;;16.17;54.60;100289.19;10346932;28;20060;-64
2023/06/02 02:09:31;;;;;;;5.90;5.30;;;;;;;16.21;54.19;100291.41;10347010;28;20050;-64
2023/06/02 02:14:33;;;;;;;7.78;5.03;;;;;;;16.15;54.52;100281.28;10329191;28;20041;-65
2023/06/02 02:19:34;;;;;;;5.18;4.68;;;;;;;16.13;54.53;100283.31;10325729;28;20049;-64
2023/06/02 02:24:36;;;;;;;6.15;5.03;;;;;;;16.07;54.57;100274.03;10334083;28;20053;-64
2023/06/02 02:29:38;;;;;;;5.50;4.97;;;;;;;16.11;54.33;100273.72;10328049;28;20200;-65
2023/06/02 02:34:39;;;;;;;5.82;4.68;;;;;;;16.04;53.88;100276.19;10279118;28;20053;-64
2023/06/02 02:39:41;;;;;;;6.55;5.00;;;;;;;15.95;54.38;100277.16;10318459;28;20593;-64
2023/06/02 02:44:43;;;;;;;5.88;4.93;;;;;;;15.90;54.95;100283.84;10332754;28;20132;-65
2023/06/02 02:49:45;;;;;;;6.82;4.97;;;;;;;15.85;54.40;100278.09;10324599;28;20502;-64
2023/06/02 02:54:46;;;;;;;8.10;5.68;;;;;;;15.54;54.77;100288.41;10343384;28;20053;-65
2023/06/02 02:59:49;;;;;;;7.60;4.82;;;;;;;15.47;55.03;100290.84;10327599;28;20092;-65
2023/06/02 03:04:54;;;;;;;5.25;4.72;;;;;;;15.59;54.43;100294.13;10341043;28;20795;-65
2023/06/02 03:09:55;;;;;;;6.53;5.90;;;;;;;15.55;54.75;100295.44;10341189;28;20679;-66
2023/06/02 03:14:57;;;;;;;6.50;5.25;;;;;;;15.58;53.93;100294.28;10324139;28;20671;-65
2023/06/02 03:19:58;;;;;;;5.43;4.88;;;;;;;15.53;53.75;100298.28;10344180;28;20124;-65
2023/06/02 03:25:00;;;;;;;6.97;5.22;;;;;;;15.43;53.97;100294.00;10341351;28;20611;-66
2023/06/02 03:30:02;;;;;;;7.63;5.10;;;;;;;15.52;53.57;100304.66;10343870;28;20126;-66
2023/06/02 03:35:05;;;;;;;8.32;5.38;;;;;;;15.48;53.21;100314.00;10341116;28;20049;-65
2023/06/02 03:40:08;;;;;;;10.20;5.47;;;;;;;15.50;52.98;100316.53;10327506;28;20093;-66
2023/06/02 03:45:10;;;;;;;8.85;5.60;;;;;;;15.39;53.07;100314.94;10316898;28;20613;-64
2023/06/02 03:50:12;;;;;;;9.00;5.53;;;;;;;15.36;53.04;100317.91;10327557;28;20913;-64
2023/06/02 03:55:13;;;;;;;7.85;4.53;;;;;;;15.42;52.92;100341.44;10339228;28;20053;-64
2023/06/02 04:00:15;;;;;;;7.47;5.53;;;;;;;15.36;53.07;100339.38;10344684;28;20065;-64
2023/06/02 04:05:17;;;;;;;7.60;5.40;;;;;;;15.41;53.38;100342.44;10343684;28;20057;-63
2023/06/02 04:10:19;;;;;;;5.82;5.22;;;;;;;15.34;53.34;100333.31;10316292;28;20160;-63
2023/06/02 04:15:21;;;;;;;6.90;4.95;;;;;;;15.39;53.25;100352.47;10319637;28;20792;-63
2023/06/02 04:20:23;;;;;;;5.72;4.32;;;;;;;15.40;53.39;100350.63;10344264;28;20180;-63
2023/06/02 04:25:25;;;;;;;6.85;5.10;;;;;;;15.32;53.35;100354.06;10313207;28;20643;-63
2023/06/02 04:30:26;;;;;;;8.05;5.57;;;;;;;15.18;53.08;100345.56;10335149;28;20060;-63
2023/06/02 04:35:28;;;;;;;9.18;5.75;;;;;;;15.25;53.12;100358.34;10321400;28;20123;-63
2023/06/02 04:40:30;;;;;;;6.47;5.57;;;;;;;15.26;52.73;100371.59;10308553;28;20160;-63
2023/06/02 04:45:32;;;;;;;8.77;5.47;;;;;;;15.17;53.04;100364.47;10336810;28;20136;-63
2023/06/02 04:50:33;;;;;;;6.25;5.15;;;;;;;15.25;53.02;100371.75;10335082;28;20081;-64
2023/06/02 04:55:35;;;;;;;6.43;4.88;;;;;;;15.23;53.24;100379.13;10309253;28;20614;-63
2023/06/02 05:00:36;;;;;;;6.80;5.22;;;;;;;15.24;52.36;100383.47;10326390;28;20053;-61
2023/06/02 05:05:38;;;;;;;7.65;5.45;;;;;;;15.09;52.36;100380.47;10327971;28;20061;-61
2023/06/02 05:10:40;;;;;;;6.32;5.30;;;;;;;15.04;52.37;100370.19;10319192;28;20190;-64
2023/06/02 05:15:41;;;;;;;7.45;5.05;;;;;;;15.22;51.55;100377.44;10320195;28;20054;-63
2023/06/02 05:20:44;;;;;;;7.80;5.57;;;;;;;15.28;51.63;100374.13;10331857;28;20054;-64
2023/06/02 05:25:48;;;;;;;7.75;5.03;;;;;;;15.07;51.50;100372.56;10315120;28;20050;-64
2023/06/02 05:30:50;;;;;;;7.35;4.85;;;;;;;15.26;51.28;100373.44;10316933;28;20201;-62
2023/06/02 05:35:52;;;;;;;8.30;5.03;;;;;;;15.30;50.83;100382.88;10317610;28;20050;-62
2023/06/02 05:40:53;;;;;;;7.18;4.80;;;;;;;15.32;51.05;100378.22;10315556;28;20042;-64
2023/06/02 05:45:55;;;;;;;6.25;5.03;;;;;;;15.44;50.47;100379.66;10307255;28;20054;-64
2023/06/02 05:50:59;;;;;;;5.68;3.97;;;;;;;15.43;51.09;100383.34;10323883;28;20064;-63
2023/06/02 05:56:01;;;;;;;6.85;5.50;;;;;;;15.56;50.53;100383.81;10324784;28;20542;-61
2023/06/02 06:01:02;;;;;;;8.98;4.88;;;;;;;15.74;50.07;100381.13;10326128;28;20555;-63
2023/06/02 06:06:05;;;;;;;6.38;4.88;;;;;;;15.71;49.69;100377.91;10334451;28;20060;-62
2023/06/02 06:11:07;;;;;;;6.15;4.53;;;;;;;15.48;50.66;100382.91;10318200;28;20148;-63
2023/06/02 06:16:10;;;;;;;7.22;4.93;;;;;;;15.25;51.12;100386.00;10318706;28;21475;-62
2023/06/02 06:21:13;;;;;;;5.90;4.25;;;;;;;15.55;50.35;100382.16;10326645;28;20061;-63
2023/06/02 06:26:16;;;;;;;23.13;6.72;;;;;;;15.95;49.72;100395.28;10305476;28;20061;-62
2023/06/02 06:31:17;;;;;;;8.13;4.50;;;;;;;16.15;49.23;100388.69;10315088;28;20057;-62
2023/06/02 06:36:19;;;;;;;23.77;7.05;;;;;;;16.20;48.79;100397.16;10328535;28;20057;-63
2023/06/02 06:41:22;;;;;;;42.55;10.68;;;;;;;16.13;48.79;100395.25;10327254;28;20056;-66
2023/06/02 06:46:24;;;;;;;4.97;3.97;;;;;;;16.14;48.78;100397.78;10328899;28;20037;-63
2023/06/02 06:51:25;;;;;;;7.85;4.05;;;;;;;16.26;48.24;100401.88;10322331;28;20131;-61
2023/06/02 06:56:27;;;;;;;5.43;3.97;;;;;;;16.36;48.04;100400.94;10324329;28;20060;-63
2023/06/02 07:01:30;;;;;;;6.72;4.07;;;;;;;16.57;47.35;100404.13;10312393;28;20139;-63
2023/06/02 07:06:35;;;;;;;4.60;3.70;;;;;;;16.63;46.74;100409.84;10316028;28;20060;-64
2023/06/02 07:11:36;;;;;;;7.07;3.95;;;;;;;16.73;47.00;100408.72;10304362;28;20053;-65
2023/06/02 07:16:38;;;;;;;4.03;3.35;;;;;;;16.76;46.85;100407.56;10335117;28;20053;-62
2023/06/02 07:21:40;;;;;;;6.35;3.80;;;;;;;16.95;46.36;100407.34;10333860;28;20112;-62
2023/06/02 07:26:42;;;;;;;5.78;3.72;;;;;;;17.09;46.68;100405.06;10300273;28;20046;-63
2023/06/02 07:31:43;;;;;;;5.22;3.97;;;;;;;17.27;46.04;100410.34;10315648;28;20196;-63
2023/06/02 07:36:47;;;;;;;4.40;3.53;;;;;;;17.49;45.90;100419.66;10315662;28;21077;-63
2023/06/02 07:41:49;;;;;;;3.88;3.22;;;;;;;17.64;45.56;100411.78;10316404;28;20469;-64
2023/06/02 07:46:50;;;;;;;8.43;4.00;;;;;;;17.60;45.32;100422.00;10323738;28;20053;-64
2023/06/02 07:51:52;;;;;;;4.43;3.25;;;;;;;17.79;45.19;100414.63;10332399;28;20057;-64
2023/06/02 07:56:54;;;;;;;7.53;3.45;;;;;;;17.93;44.59;100416.69;10332445;28;20050;-62
2023/06/02 08:01:55;;;;;;;5.80;3.78;;;;;;;17.47;44.61;100417.13;10308547;28;20057;-61
2023/06/02 08:06:57;;;;;;;7.68;4.22;;;;;;;17.63;44.47;100421.69;10334376;28;20060;-64
2023/06/02 08:11:59;;;;;;;7.28;2.75;;;;;;;17.86;44.61;100418.34;10317119;28;20056;-63
2023/06/02 08:17:01;;;;;;;6.57;3.88;;;;;;;18.08;44.11;100410.66;10292030;28;20050;-64
2023/06/02 08:22:04;;;;;;;8.05;3.85;;;;;;;18.19;44.18;100404.91;10326757;28;20534;-62
2023/06/02 08:27:07;;;;;;;4.30;3.65;;;;;;;18.42;43.09;100404.19;10301605;28;20058;-61
2023/06/02 08:32:08;;;;;;;6.75;3.50;;;;;;;18.66;43.10;100392.53;10331300;28;20065;-63
2023/06/02 08:37:16;;;;;;;6.88;3.63;;;;;;;18.73;42.52;100394.38;10318325;28;20065;-64
2023/06/02 08:42:18;;;;;;;5.20;3.60;;;;;;;18.85;41.78;100396.69;10305765;28;20125;-62
2023/06/02 08:47:30;;;;;;;6.95;3.60;;;;;;;18.99;41.55;100387.03;10319845;28;20059;-62
2023/06/02 08:52:37;;;;;;;8.18;3.53;;;;;;;18.85;41.30;100394.84;10321511;28;20061;-62
2023/06/02 08:57:40;;;;;;;3.95;2.88;;;;;;;18.70;42.04;100386.59;10332777;28;20053;-63
2023/06/02 09:02:42;;;;;;;4.53;3.60;;;;;;;18.98;41.76;100388.91;10323018;28;20050;-61
2023/06/02 09:07:47;;;;;;;5.30;3.03;;;;;;;19.01;41.30;100385.84;10314588;28;20537;-62
2023/06/02 09:12:49;;;;;;;8.13;2.90;;;;;;;19.14;41.24;100387.16;10304038;28;20073;-61
2023/06/02 09:18:08;;;;;;;7.28;3.70;;;;;;;19.27;39.90;100387.41;10307186;28;20044;-61
2023/06/02 09:23:10;;;;;;;6.95;3.53;;;;;;;19.37;40.24;100377.25;10327062;28;20058;-61
2023/06/02 09:28:12;;;;;;;5.45;3.65;;;;;;;19.73;39.59;100390.16;10328690;28;20061;-61
2023/06/02 09:33:14;;;;;;;7.38;3.08;;;;;;;19.89;38.53;100391.06;10320539;28;20201;-61
2023/06/02 09:38:17;;;;;;;5.57;2.50;;;;;;;20.03;38.54;100382.19;10318889;28;20041;-61
2023/06/02 09:43:28;;;;;;;3.75;2.80;;;;;;;19.78;38.55;100381.53;10328105;28;20107;-61
2023/06/02 09:48:30;;;;;;;5.30;3.28;;;;;;;20.18;37.99;100378.69;10327730;28;20164;-62
2023/06/02 09:53:34;;;;;;;4.90;2.53;;;;;;;20.45;37.88;100380.75;10314173;28;20044;-63
2023/06/02 09:58:36;;;;;;;4.05;3.03;;;;;;;20.36;36.38;100392.69;10300669;28;20061;-61
2023/06/02 10:03:44;;;;;;;5.45;3.40;;;;;;;20.29;37.13;100380.94;10318163;28;21201;-61
2023/06/02 10:09:22;;;;;;;5.10;2.90;;;;;;;20.39;38.38;100386.91;10335041;28;20597;-51
2023/06/02 10:14:55;;;;;;;5.68;2.88;;;;;;;20.80;37.81;100383.78;10291186;28;20046;-51
2023/06/02 10:20:28;;;;;;;4.23;2.90;;;;;;;21.12;36.72;100387.13;10334087;28;20186;-52
2023/06/02 10:25:59;;;;;;;3.78;2.42;;;;;;;21.35;36.16;100378.00;10331806;28;21077;-52
2023/06/02 10:31:08;;;;;;;6.95;2.70;;;;;;;21.58;35.22;100374.31;10339572;28;20056;-52
2023/06/02 10:36:12;;;;;;;5.78;2.70;;;;;;;21.67;35.87;100375.88;10332138;28;20064;-53
2023/06/02 10:41:14;;;;;;;4.30;2.10;;;;;;;21.61;34.86;100368.50;10336519;28;20063;-52
2023/06/02 10:46:21;;;;;;;4.67;2.43;;;;;;;21.67;35.87;100363.16;10335060;28;20136;-52
2023/06/02 10:51:22;;;;;;;4.70;2.83;;;;;;;21.92;35.77;100367.31;10336818;28;20320;-52
2023/06/02 10:56:38;;;;;;;6.10;3.00;;;;;;;21.65;35.64;100372.53;10337903;28;20150;-52
2023/06/02 11:01:44;;;;;;;5.57;3.20;;;;;;;21.98;35.53;100364.69;10333126;28;20664;-52
2023/06/02 11:06:46;;;;;;;5.35;3.00;;;;;;;22.24;34.96;100353.19;10333430;28;20113;-52
2023/06/02 11:11:50;;;;;;;5.93;2.08;;;;;;;22.50;35.30;100362.56;10317578;28;20061;-53
2023/06/02 11:17:30;;;;;;;4.57;2.75;;;;;;;22.44;34.59;100363.38;10328382;28;20678;-53
2023/06/02 11:22:36;;;;;;;3.35;2.42;;;;;;;22.67;34.98;100364.97;10311503;28;20111;-53
2023/06/02 11:27:45;;;;;;;6.68;2.25;;;;;;;22.88;34.89;100356.72;10334706;28;20060;-53
2023/06/02 11:32:51;;;;;;;7.50;3.67;;;;;;;22.68;34.44;100353.91;10309614;28;20056;-61
2023/06/02 11:38:06;;;;;;;6.40;2.80;;;;;;;22.09;34.78;100349.75;10312229;28;20107;-61
2023/06/02 11:43:07;;;;;;;4.72;3.20;;;;;;;22.42;34.94;100360.03;10326517;28;20164;-62
2023/06/02 11:48:09;;;;;;;6.72;3.53;;;;;;;;;;10336207;28;20092;-62
2023/06/02 11:53:15;;;;;;;6.55;3.00;;;;;;;22.83;34.27;100334.78;10319575;28;20635;-61
2023/06/02 11:58:17;;;;;;;4.60;2.58;;;;;;;22.84;34.45;100330.22;10317257;28;20623;-61
2023/06/02 12:03:19;;;;;;;5.95;2.28;;;;;;;22.99;34.56;100322.75;10329141;28;20131;-62
2023/06/02 12:08:22;;;;;;;4.25;2.67;;;;;;;23.04;34.41;100322.13;10323789;28;20142;-60
2023/06/02 12:13:24;;;;;;;6.15;2.42;;;;;;;23.19;33.34;100320.09;10301284;28;20153;-62
2023/06/02 12:18:29;;;;;;;5.88;2.72;;;;;;;23.01;34.33;100338.81;10303332;28;20080;-62
2023/06/02 12:23:45;;;;;;;5.78;2.78;;;;;;;23.14;34.41;100325.31;10333285;28;20596;-61
2023/06/02 12:28:49;;;;;;;5.95;2.67;;;;;;;22.88;34.75;100332.31;10300106;28;20045;-61
2023/06/02 12:33:51;;;;;;;6.22;2.90;;;;;;;22.95;34.32;100327.75;10300440;28;20207;-60
2023/06/02 12:38:53;;;;;;;5.10;3.00;;;;;;;22.98;33.55;100322.94;10332784;28;20187;-62
2023/06/02 12:43:54;;;;;;;6.70;2.80;;;;;;;22.89;34.79;100325.81;10309767;28;21542;-61
2023/06/02 12:48:58;;;;;;;5.32;2.85;;;;;;;22.74;34.12;100319.72;10301491;28;20068;-63
2023/06/02 12:54:00;;;;;;;5.97;2.90;;;;;;;22.70;35.05;100308.44;10310827;28;20773;-61
2023/06/02 12:59:03;;;;;;;6.78;2.85;;;;;;;22.91;34.96;100310.19;10327350;28;21780;-61
2023/06/02 13:04:05;;;;;;;7.00;2.97;;;;;;;23.12;34.64;100305.69;10321786;28;20521;-62
2023/06/02 13:09:07;;;;;;;5.13;2.97;;;;;;;23.21;34.40;100307.19;10328088;28;20056;-61
2023/06/02 13:14:10;;;;;;;7.15;2.65;;;;;;;23.12;34.81;100305.69;10296250;28;20656;-60
2023/06/02 13:19:11;;;;;;;5.57;3.10;;;;;;;23.00;35.11;100304.56;10321933;28;20049;-60
2023/06/02 13:24:15;;;;;;;6.85;2.75;;;;;;;23.01;33.70;100300.81;10327650;28;20072;-61
2023/06/02 13:29:17;;;;;;;10.38;2.60;;;;;;;22.90;34.05;100316.66;10324287;28;20053;-61
2023/06/02 13:34:19;;;;;;;8.57;3.15;;;;;;;22.89;34.42;100298.69;10301730;28;20569;-61
2023/06/02 13:39:21;;;;;;;7.65;2.78;;;;;;;22.95;34.54;100287.03;10310179;28;20144;-62
2023/06/02 13:44:22;;;;;;;7.47;2.33;;;;;;;22.99;34.67;100279.31;10325499;28;20052;-61
2023/06/02 13:49:24;;;;;;;4.18;2.80;;;;;;;23.00;34.19;100275.56;10325933;28;20057;-64
2023/06/02 13:54:26;;;;;;;6.35;2.58;;;;;;;22.75;34.77;100280.69;10325963;28;20425;-60
2023/06/02 13:59:28;;;;;;;7.13;2.40;;;;;;;22.82;35.08;100283.41;10329514;28;20682;-60
2023/06/02 14:04:30;;;;;;;8.37;2.70;;;;;;;22.69;35.07;100278.81;10324360;28;20561;-60
2023/06/02 14:09:32;;;;;;;6.03;2.25;;;;;;;22.57;35.12;100278.53;10310546;28;20062;-60
2023/06/02 14:14:33;;;;;;;6.25;2.63;;;;;;;22.58;35.27;100270.19;10326402;28;20058;-61
2023/06/02 14:19:35;;;;;;;6.97;2.75;;;;;;;22.55;35.22;100264.34;10306735;28;20053;-61
2023/06/02 14:24:37;;;;;;;6.90;2.80;;;;;;;22.40;35.59;100267.19;10324599;28;20136;-60
2023/06/02 14:29:39;;;;;;;14.85;2.90;;;;;;;22.44;35.66;100271.16;10312754;28;20144;-60
2023/06/02 14:34:41;;;;;;;5.57;2.80;;;;;;;22.48;35.52;100275.16;10316132;28;20058;-60
2023/06/02 14:39:42;;;;;;;5.30;2.60;;;;;;;22.56;35.31;100264.16;10319652;28;20057;-61
2023/06/02 14:44:44;;;;;;;3.95;2.42;;;;;;;22.46;35.50;100263.69;10317976;28;20059;-66
2023/06/02 14:49:46;;;;;;;4.88;2.60;;;;;;;22.45;35.78;100256.56;10308523;28;20064;-60
2023/06/02 14:54:47;;;;;;;7.25;2.05;;;;;;;22.44;35.61;100259.50;10307551;28;20068;-60
2023/06/02 14:59:49;;;;;;;5.80;2.28;;;;;;;22.43;35.57;100239.69;10310823;28;20049;-62
2023/06/02 15:04:51;;;;;;;5.05;2.28;;;;;;;22.51;36.12;100241.38;10318256;28;20049;-63
2023/06/02 15:09:53;;;;;;;4.85;2.38;;;;;;;22.51;35.96;100230.53;10331448;28;20041;-63
2023/06/02 15:14:55;;;;;;;7.20;2.38;;;;;;;22.53;35.63;100236.56;10316964;28;20057;-62
2023/06/02 15:19:56;;;;;;;4.70;2.53;;;;;;;22.48;34.85;100229.03;10315966;28;20050;-62
2023/06/02 15:24:58;;;;;;;5.53;2.88;;;;;;;22.49;35.00;100236.16;10317727;28;20536;-62
2023/06/02 15:29:59;;;;;;;4.90;2.83;;;;;;;22.42;34.53;100213.59;10341986;28;20053;-62
2023/06/02 15:35:02;;;;;;;5.35;2.17;;;;;;;22.46;33.97;100212.16;10317093;28;20486;-63
2023/06/02 15:40:05;;;;;;;5.13;2.78;;;;;;;22.52;33.91;100214.06;10334016;28;20633;-62
2023/06/02 15:45:08;;;;;;;6.70;2.97;;;;;;;22.51;33.11;100206.94;10304367;28;20616;-63
2023/06/02 15:50:10;;;;;;;;;;;;;;;22.49;31.56;100206.31;10295943;28;20053;-66
2023/06/02 15:55:11;;;;;;;5.15;2.50;;;;;;;22.50;32.38;100199.00;10313989;28;20565;-63
2023/06/02 16:00:13;;;;;;;3.65;2.45;;;;;;;22.50;31.30;100202.53;10312786;28;20152;-63
2023/06/02 16:05:15;;;;;;;5.85;4.22;;;;;;;22.50;31.66;100202.53;10310514;28;20425;-63
2023/06/02 16:10:17;;;;;;;4.13;2.65;;;;;;;22.44;31.92;100199.81;10315251;28;20072;-62
2023/06/02 16:15:18;;;;;;;5.80;2.67;;;;;;;22.36;31.11;100193.53;10323255;28;20049;-63
2023/06/02 16:20:20;;;;;;;4.32;2.60;;;;;;;22.37;32.27;100195.22;10312840;28;20069;-62
2023/06/02 16:25:21;;;;;;;5.38;2.65;;;;;;;22.41;31.72;100195.63;10302777;28;20114;-63
2023/06/02 16:30:25;;;;;;;3.95;2.90;;;;;;;22.34;31.59;100178.50;10313042;28;20057;-63
2023/06/02 16:35:27;;;;;;;3.95;2.42;;;;;;;22.44;31.91;100200.66;10331516;28;20057;-63
2023/06/02 16:40:30;;;;;;;3.92;2.38;;;;;;;22.37;32.08;100207.94;10332814;28;20815;-63
2023/06/02 16:45:32;;;;;;;4.15;2.42;;;;;;;22.28;31.87;100190.97;10332479;28;20061;-63
2023/06/02 16:50:33;;;;;;;6.43;3.33;;;;;;;22.16;31.63;100193.44;10302833;28;20061;-63
2023/06/02 16:55:35;;;;;;;6.03;3.17;;;;;;;22.20;32.22;100197.41;10330253;28;20053;-63
2023/06/02 17:00:36;;;;;;;4.50;2.80;;;;;;;22.15;31.87;100210.72;10332756;28;20222;-63
2023/06/02 17:05:38;;;;;;;8.65;3.35;;;;;;;22.17;32.39;100200.53;10305169;28;20188;-62
2023/06/02 17:10:40;;;;;;;4.20;3.22;;;;;;;22.12;32.19;100202.16;10312020;28;20053;-62
2023/06/02 17:15:41;;;;;;;3.70;2.88;;;;;;;22.09;32.42;100192.56;10312451;28;20060;-62
2023/06/02 17:20:43;;;;;;;5.78;2.88;;;;;;;22.12;33.03;100202.16;10297947;28;20100;-63
2023/06/02 17:25:46;;;;;;;6.07;2.78;;;;;;;22.07;33.20;100205.47;10328806;28;20078;-63
2023/06/02 17:30:48;;;;;;;4.78;2.85;;;;;;;22.05;33.63;100210.25;10314661;28;20045;-63
2023/06/02 17:35:52;;;;;;;5.30;3.40;;;;;;;21.98;33.60;100217.50;10320270;28;20107;-67
2023/06/02 17:40:54;;;;;;;4.78;2.65;;;;;;;21.88;33.47;100215.97;10331387;28;20476;-61
2023/06/02 17:45:55;;;;;;;6.15;2.78;;;;;;;21.81;34.31;100209.72;10330303;28;20048;-63
2023/06/02 17:51:00;;;;;;;4.65;2.33;;;;;;;21.65;34.58;100202.72;10328774;28;20057;-62
2023/06/02 17:56:03;;;;;;;3.78;2.42;;;;;;;21.66;34.88;100219.78;10310490;28;20050;-63
2023/06/02 18:01:05;;;;;;;4.82;2.83;;;;;;;21.57;35.11;100221.81;10320728;28;20061;-63
2023/06/02 18:06:07;;;;;;;4.55;2.63;;;;;;;21.55;35.13;100221.16;10320445;28;21097;-63
2023/06/02 18:11:09;;;;;;;5.63;2.92;;;;;;;21.48;35.44;100229.22;10311155;28;20056;-63
2023/06/02 18:16:12;;;;;;;4.00;2.95;;;;;;;21.44;35.73;100233.34;10304592;28;20056;-63
2023/06/02 18:21:14;;;;;;;4.22;2.15;;;;;;;21.31;36.20;100233.22;10325608;28;20072;-63
2023/06/02 18:26:15;;;;;;;4.38;2.17;;;;;;;21.22;36.65;100235.22;10307048;28;21164;-63
2023/06/02 18:31:17;;;;;;;5.18;2.20;;;;;;;21.22;37.17;100245.22;10331531;28;20060;-53
2023/06/02 18:36:20;;;;;;;5.20;2.83;;;;;;;21.10;37.62;100250.31;10333476;28;21127;-53
2023/06/02 18:41:22;;;;;;;4.97;2.85;;;;;;;21.00;37.62;100247.91;10331260;28;20722;-53
2023/06/02 18:46:23;;;;;;;5.57;2.40;;;;;;;21.05;38.08;100250.03;10337465;28;20046;-53
2023/06/02 18:51:26;;;;;;;4.38;2.60;;;;;;;20.96;38.14;100254.75;10335832;28;20049;-53
2023/06/02 18:56:27;;;;;;;8.98;4.10;;;;;;;20.93;38.20;100257.84;10335029;28;20056;-53
2023/06/02 19:01:30;;;;;;;3.20;2.05;;;;;;;20.92;38.34;100266.97;10337836;28;20426;-55
2023/06/02 19:06:31;;;;;;;6.83;2.97;;;;;;;20.87;38.68;100264.00;10331194;28;20757;-53
2023/06/02 19:11:33;;;;;;;5.10;2.88;;;;;;;20.82;38.28;100268.13;10334247;28;20315;-53
2023/06/02 19:16:34;;;;;;;4.57;2.65;;;;;;;20.70;38.60;100277.75;10316588;28;20049;-53
2023/06/02 19:21:36;;;;;;;4.82;2.55;;;;;;;20.53;38.96;100284.38;10330810;28;20161;-53
2023/06/02 19:26:38;;;;;;;4.47;2.53;;;;;;;20.40;39.03;100280.47;10321269;28;20450;-53
2023/06/02 19:31:39;;;;;;;4.53;2.30;;;;;;;20.45;39.27;100296.97;10320389;28;20795;-53
2023/06/02 19:36:41;;;;;;;4.60;2.42;;;;;;;20.43;39.19;100307.13;10343040;28;20057;-53
2023/06/02 19:41:42;;;;;;;7.40;2.30;;;;;;;20.30;39.91;100310.47;10324243;28;20546;-57
2023/06/02 19:46:44;;;;;;;6.85;2.53;;;;;;;20.31;39.74;100314.00;10335278;28;20045;-53
2023/06/02 19:51:45;;;;;;;4.22;2.20;;;;;;;20.22;40.26;100328.63;10317638;28;20180;-53
2023/06/02 19:56:47;;;;;;;4.57;2.65;;;;;;;20.09;41.01;100324.72;10339074;28;20144;-53
2023/06/02 20:01:48;;;;;;;6.82;2.50;;;;;;;20.06;40.47;100318.84;10318443;28;20144;-53
2023/06/02 20:06:50;;;;;;;3.80;2.00;;;;;;;19.85;40.77;100333.88;10317810;28;20552;-53
2023/06/02 20:11:52;;;;;;;6.15;2.28;;;;;;;19.83;41.26;100333.25;10334307;28;20151;-53
2023/06/02 20:16:54;;;;;;;9.98;4.18;;;;;;;19.77;41.27;100337.50;10333254;28;21148;-52
2023/06/02 20:21:56;;;;;;;5.55;1.92;;;;;;;19.62;41.40;100331.16;10331783;28;20049;-53
2023/06/02 20:26:57;;;;;;;4.72;1.65;;;;;;;19.69;41.18;100344.78;10319282;28;20082;-53
2023/06/02 20:31:58;;;;;;;7.15;2.15;;;;;;;19.68;41.36;100356.59;10333998;28;20266;-54
2023/06/02 20:37:00;;;;;;;4.28;1.80;;;;;;;19.67;41.23;100355.78;10334036;28;20045;-53
2023/06/02 20:42:02;;;;;;;4.88;2.10;;;;;;;19.62;41.37;100358.16;10337570;28;20866;-54
2023/06/02 20:47:03;;;;;;;5.00;1.45;;;;;;;19.58;41.33;100351.47;10340526;28;20115;-53
2023/06/02 20:52:05;;;;;;;5.82;2.08;;;;;;;19.43;41.48;100349.53;10336436;28;20045;-53
2023/06/02 20:57:07;;;;;;;5.40;2.47;;;;;;;19.47;41.42;100362.66;10331402;28;20518;-54
2023/06/02 21:02:08;;;;;;;6.18;2.05;;;;;;;19.25;41.86;100363.31;10332483;28;20054;-53
2023/06/02 21:07:10;;;;;;;6.35;2.10;;;;;;;19.23;42.23;100359.09;10336301;28;20113;-52
2023/06/02 21:12:13;;;;;;;5.75;2.80;;;;;;;19.22;42.39;100371.75;10333193;28;20057;-53
2023/06/02 21:17:15;;;;;;;4.68;1.90;;;;;;;19.18;42.75;100369.59;10334946;28;20053;-53
2023/06/02 21:22:17;;;;;;;6.25;1.77;;;;;;;19.11;42.55;100369.47;10333676;28;20052;-53
2023/06/02 21:27:18;;;;;;;3.97;1.55;;;;;;;19.08;42.75;100377.91;10301443;28;20114;-54
2023/06/02 21:32:20;;;;;;;5.40;1.75;;;;;;;19.02;42.64;100381.28;10334605;28;20049;-53
2023/06/02 21:37:21;;;;;;;5.28;2.20;;;;;;;18.97;42.78;100384.53;10316176;28;20138;-54
2023/06/02 21:42:23;;;;;;;5.45;2.33;;;;;;;18.93;42.95;100385.91;10335082;28;20611;-54
2023/06/02 21:47:24;;;;;;;3.97;1.85;;;;;;;18.85;42.84;100385.91;10329661;28;20057;-53
2023/06/02 21:52:26;;;;;;;5.65;2.00;;;;;;;18.81;42.93;100392.66;10331176;28;20163;-54
2023/06/02 21:57:27;;;;;;;7.05;1.65;;;;;;;18.69;43.08;100389.47;10321915;28;20410;-52
2023/06/02 22:02:29;;;;;;;5.43;1.92;;;;;;;18.67;43.34;100381.56;10343035;28;20054;-52
2023/06/02 22:07:33;;;;;;;3.42;1.73;;;;;;;18.63;43.35;100395.56;10338557;28;20046;-52
2023/06/02 22:12:34;;;;;;;4.57;1.75;;;;;;;18.44;43.59;100399.50;10333274;28;20050;-64
2023/06/02 22:17:36;;;;;;;4.68;2.15;;;;;;;18.17;44.30;100410.47;10328292;28;20184;-62
2023/06/02 22:22:37;;;;;;;6.55;2.10;;;;;;;18.15;44.45;100409.81;10348073;28;20080;-66
2023/06/02 22:27:39;;;;;;;4.05;2.05;;;;;;;18.06;44.29;100407.28;10341414;28;20497;-64
2023/06/02 22:32:41;;;;;;;4.55;1.85;;;;;;;18.04;45.08;100414.69;10332289;28;20057;-64
2023/06/02 22:37:42;;;;;;;8.40;2.67;;;;;;;17.87;45.00;100406.56;10346990;28;20867;-64
2023/06/02 22:42:45;;;;;;;4.68;1.60;;;;;;;17.73;45.31;100404.53;10332176;28;20065;-64
2023/06/02 22:47:47;;;;;;;8.15;2.00;;;;;;;17.66;45.77;100409.75;10335640;28;20049;-63
2023/06/02 22:52:49;;;;;;;4.90;1.80;;;;;;;17.57;45.89;100403.50;10329341;28;20124;-63
2023/06/02 22:57:52;;;;;;;6.43;2.40;;;;;;;17.65;45.62;100408.91;10333074;28;20668;-63
2023/06/02 23:02:54;;;;;;;3.70;2.20;;;;;;;17.45;45.92;100404.84;10328187;28;20645;-63
2023/06/02 23:07:56;;;;;;;5.43;1.92;;;;;;;17.34;46.63;100406.00;10336434;28;20082;-63
2023/06/02 23:12:58;;;;;;;2.25;1.40;;;;;;;17.42;46.47;100397.09;10332613;28;20053;-63